Time;durP1;ratioP1;P1;durP2;ratioP2;P2;SDS_P1;SDS_P2;PMS_P1;PMS_P2;Temp;Humidity;BMP_temperature;BMP_pressure;BME280_temperature;BME280_humidity;BME280_pressure;Samples;Min_cycle;Max_cycle;Signal;HPM_P1;HPM_P2
2022/03/18 00:00:21;;;;;;;8.02;4.07;;;4.30;99.90;;;;;;5036007;28;20549;-82
2022/03/18 00:02:55;;;;;;;8.90;3.95;;;4.30;99.90;;;;;;5052323;28;20398;-80
2022/03/18 00:05:23;;;;;;;13.20;3.85;;;4.20;99.90;;;;;;5036551;28;20123;-82
2022/03/18 00:07:49;;;;;;;10.35;4.45;;;4.20;99.90;;;;;;5062084;28;20520;-81
2022/03/18 00:10:17;;;;;;;8.93;3.45;;;4.10;99.90;;;;;;5052412;28;20124;-83
2022/03/18 00:12:44;;;;;;;7.45;3.47;;;4.00;99.90;;;;;;5033935;28;20043;-81
2022/03/18 00:15:11;;;;;;;13.73;3.70;;;4.00;99.90;;;;;;5051720;28;20109;-83
2022/03/18 00:17:37;;;;;;;10.90;4.20;;;4.10;99.90;;;;;;5048855;28;20045;-80
2022/03/18 00:20:08;;;;;;;7.22;3.63;;;4.20;99.90;;;;;;5032446;28;20045;-81
2022/03/18 00:22:34;;;;;;;7.28;3.55;;;4.20;99.90;;;;;;5053756;28;20114;-81
2022/03/18 00:25:00;;;;;;;;;;;4.20;99.90;;;;;;5053364;28;20051;-81
2022/03/18 00:27:29;;;;;;;12.02;4.88;;;4.20;99.90;;;;;;5052324;28;20452;-82
2022/03/18 00:29:56;;;;;;;6.78;3.70;;;4.20;99.90;;;;;;5016915;28;20100;-81
2022/03/18 00:32:23;;;;;;;11.60;5.55;;;4.10;99.90;;;;;;5057008;28;20040;-80
2022/03/18 00:34:48;;;;;;;13.35;5.78;;;4.20;99.90;;;;;;5039880;28;20450;-82
2022/03/18 00:37:14;;;;;;;13.65;4.68;;;4.10;99.90;;;;;;5022982;28;20088;-82
2022/03/18 00:39:43;;;;;;;9.38;4.60;;;4.20;99.90;;;;;;5016880;28;20127;-81
2022/03/18 00:42:09;;;;;;;12.32;5.88;;;4.20;99.90;;;;;;5034693;28;20056;-82
2022/03/18 00:44:36;;;;;;;11.77;5.60;;;4.20;99.90;;;;;;5021325;28;20490;-81
2022/03/18 00:47:02;;;;;;;10.98;4.68;;;4.10;99.90;;;;;;5073202;28;20823;-82
2022/03/18 00:52:14;;;;;;;7.65;5.18;;;4.10;99.90;;;;;;5037587;28;20495;-81
2022/03/18 00:54:42;;;;;;;11.00;5.30;;;4.00;99.90;;;;;;5035373;28;20045;-83
2022/03/18 00:57:09;;;;;;;8.88;4.97;;;4.00;99.90;;;;;;5019722;28;20350;-82
2022/03/18 00:59:35;;;;;;;10.60;5.25;;;4.00;99.90;;;;;;5047455;28;20045;-81
2022/03/18 01:02:02;;;;;;;9.57;4.82;;;3.90;99.90;;;;;;5035236;28;20055;-81
2022/03/18 01:04:28;;;;;;;10.63;5.25;;;3.90;99.90;;;;;;5042263;28;20037;-82
2022/03/18 01:06:55;;;;;;;12.82;5.80;;;3.90;99.90;;;;;;5033041;28;20461;-81
2022/03/18 01:09:27;;;;;;;18.60;5.13;;;3.90;99.90;;;;;;5020629;28;20114;-82
2022/03/18 01:11:54;;;;;;;10.57;5.68;;;4.00;99.90;;;;;;5028054;28;20128;-81
2022/03/18 01:14:20;;;;;;;9.40;5.50;;;3.90;99.90;;;;;;5040400;28;20090;-82
2022/03/18 01:16:46;;;;;;;11.98;5.38;;;3.90;99.90;;;;;;5034232;28;20052;-83
2022/03/18 01:19:12;;;;;;;12.27;5.25;;;3.90;99.90;;;;;;5020140;28;20049;-82
2022/03/18 01:21:39;;;;;;;11.15;4.53;;;3.90;99.90;;;;;;5055809;28;20120;-81
2022/03/18 01:24:06;;;;;;;13.25;5.00;;;4.00;99.90;;;;;;5046299;28;20454;-82
2022/03/18 01:26:32;;;;;;;7.07;4.63;;;4.00;99.90;;;;;;5043573;28;20080;-82
2022/03/18 01:28:58;;;;;;;10.75;5.07;;;4.00;99.90;;;;;;5055347;28;20052;-82
2022/03/18 01:31:25;;;;;;;12.13;5.35;;;4.10;99.90;;;;;;5055022;28;20037;-82
2022/03/18 01:33:50;;;;;;;9.70;4.43;;;4.10;99.90;;;;;;5052607;28;20059;-81
2022/03/18 01:36:17;;;;;;;7.88;4.15;;;4.10;99.90;;;;;;5035151;28;20048;-82
2022/03/18 01:38:43;;;;;;;7.53;4.65;;;4.10;99.90;;;;;;5054445;28;20109;-83
2022/03/18 01:41:09;;;;;;;8.73;5.13;;;4.10;99.90;;;;;;5047667;28;20444;-81
2022/03/18 01:43:44;;;;;;;9.35;5.45;;;4.40;99.90;;;;;;5039231;28;20041;-81
2022/03/18 01:46:11;;;;;;;11.00;4.63;;;4.20;99.90;;;;;;5063637;28;20048;-81
2022/03/18 01:48:37;;;;;;;6.38;3.97;;;4.20;99.90;;;;;;5021862;28;20052;-82
2022/03/18 01:51:04;;;;;;;;;;;4.20;99.90;;;;;;5038688;28;20041;-83
2022/03/18 01:53:30;;;;;;;8.85;4.55;;;4.10;99.90;;;;;;5054851;28;19999;-83
2022/03/18 01:55:56;;;;;;;11.13;4.60;;;4.00;99.90;;;;;;5005378;28;20075;-83
2022/03/18 01:58:24;;;;;;;;;;;4.20;99.90;;;;;;5038208;28;20095;-82
2022/03/18 02:00:50;;;;;;;14.55;5.55;;;3.90;99.90;;;;;;5053908;28;19959;-83
2022/03/18 02:03:16;;;;;;;12.40;5.45;;;3.90;99.90;;;;;;5039335;28;20049;-81
2022/03/18 02:05:43;;;;;;;5.47;4.18;;;3.90;99.90;;;;;;5055183;28;20033;-81
2022/03/18 02:08:09;;;;;;;13.48;5.35;;;3.90;99.90;;;;;;5027432;28;20122;-82
2022/03/18 02:10:38;;;;;;;9.75;5.63;;;4.10;99.90;;;;;;5044837;28;20091;-81
2022/03/18 02:13:04;;;;;;;8.65;5.32;;;3.90;99.90;;;;;;5054853;28;20140;-82
2022/03/18 02:15:30;;;;;;;9.75;5.13;;;3.90;99.90;;;;;;5025064;28;20041;-80
2022/03/18 02:18:04;;;;;;;9.82;4.88;;;3.90;99.90;;;;;;5043267;28;20449;-80
2022/03/18 02:20:31;;;;;;;8.75;4.90;;;3.90;99.90;;;;;;5054145;28;20041;-82
2022/03/18 02:22:57;;;;;;;11.55;5.93;;;3.90;99.90;;;;;;5033944;28;20056;-82
2022/03/18 02:25:23;;;;;;;10.02;5.45;;;4.00;99.90;;;;;;5034110;28;20041;-82
2022/03/18 02:27:53;;;;;;;;;;;4.00;99.90;;;;;;5035197;28;20053;-81
2022/03/18 02:30:20;;;;;;;7.03;4.40;;;4.00;99.90;;;;;;5054070;28;19917;-82
2022/03/18 02:32:46;;;;;;;11.95;4.40;;;4.00;99.90;;;;;;5046481;28;20037;-81
2022/03/18 02:35:12;;;;;;;11.00;5.90;;;4.00;99.90;;;;;;5046522;28;20029;-81
2022/03/18 02:37:38;;;;;;;7.63;4.53;;;3.90;99.90;;;;;;5034275;28;20467;-81
2022/03/18 02:40:04;;;;;;;13.73;5.03;;;4.10;99.90;;;;;;5052581;28;20087;-83
2022/03/18 02:42:30;;;;;;;9.00;4.60;;;4.10;99.90;;;;;;5036198;28;20103;-81
2022/03/18 02:44:56;;;;;;;9.57;4.40;;;4.10;99.90;;;;;;5039387;28;20041;-82
2022/03/18 02:47:21;;;;;;;16.75;4.35;;;4.00;99.90;;;;;;5038201;28;20124;-82
2022/03/18 02:49:47;;;;;;;10.35;4.70;;;4.00;99.90;;;;;;5042877;28;20057;-82
2022/03/18 02:52:14;;;;;;;11.68;5.13;;;4.00;99.90;;;;;;5063766;28;20041;-81
2022/03/18 02:54:40;;;;;;;8.55;4.55;;;4.00;99.90;;;;;;5041314;28;20068;-82
2022/03/18 02:57:06;;;;;;;;;;;3.90;99.90;;;;;;5055436;28;20041;-83
2022/03/18 02:59:33;;;;;;;7.10;4.63;;;3.90;99.90;;;;;;5041508;28;19923;-82
2022/03/18 03:01:59;;;;;;;8.60;5.07;;;3.90;99.90;;;;;;5029959;28;20044;-82
2022/03/18 03:04:24;;;;;;;;;;;4.00;99.90;;;;;;5033587;28;20045;-82
2022/03/18 03:09:34;;;;;;;9.10;4.55;;;3.80;99.90;;;;;;5047322;28;20017;-81
2022/03/18 03:12:00;;;;;;;9.45;5.38;;;3.80;99.90;;;;;;5042825;28;20037;-83
2022/03/18 03:14:26;;;;;;;9.85;5.63;;;3.80;99.90;;;;;;5056629;28;20052;-82
2022/03/18 03:16:52;;;;;;;9.68;5.25;;;3.80;99.90;;;;;;5054738;28;20072;-82
2022/03/18 03:19:17;;;;;;;11.68;6.07;;;3.80;99.90;;;;;;5051778;28;20094;-82
2022/03/18 03:21:43;;;;;;;8.57;4.63;;;3.90;99.90;;;;;;5034697;28;20419;-82
2022/03/18 03:24:09;;;;;;;10.15;5.28;;;3.80;99.90;;;;;;5061103;28;20099;-82
2022/03/18 03:26:35;;;;;;;8.48;5.60;;;4.00;99.90;;;;;;5052358;28;20041;-82
2022/03/18 03:29:00;;;;;;;14.02;5.05;;;3.80;99.90;;;;;;5055333;28;20050;-81
2022/03/18 03:31:26;;;;;;;16.17;5.95;;;4.00;99.90;;;;;;5023436;28;20486;-83
2022/03/18 03:33:52;;;;;;;11.05;5.50;;;4.10;99.90;;;;;;5053327;28;20086;-82
2022/03/18 03:36:18;;;;;;;9.57;5.50;;;4.00;99.90;;;;;;5052878;28;20043;-82
2022/03/18 03:38:44;;;;;;;6.90;4.68;;;3.90;99.90;;;;;;5053193;28;20421;-81
2022/03/18 03:41:10;;;;;;;9.07;4.97;;;4.00;99.90;;;;;;5040111;28;20071;-81
2022/03/18 03:43:35;;;;;;;9.20;5.03;;;4.00;99.90;;;;;;5056902;28;20071;-82
2022/03/18 03:46:01;;;;;;;9.40;5.57;;;4.00;99.90;;;;;;5036621;28;20033;-81
2022/03/18 03:48:27;;;;;;;10.30;6.13;;;4.00;99.90;;;;;;5018435;28;20048;-81
2022/03/18 03:50:53;;;;;;;;;;;4.10;99.90;;;;;;5036116;28;20375;-82
2022/03/18 03:53:19;;;;;;;14.55;5.40;;;4.20;99.90;;;;;;5055345;28;19927;-82
2022/03/18 03:55:45;;;;;;;7.65;5.18;;;4.10;99.90;;;;;;5055153;28;20072;-81
2022/03/18 03:58:11;;;;;;;9.77;5.50;;;4.10;99.90;;;;;;5047152;28;20048;-81
2022/03/18 04:00:38;;;;;;;15.32;5.25;;;4.30;99.90;;;;;;5055851;28;20055;-82
2022/03/18 04:03:05;;;;;;;9.23;5.78;;;4.30;99.90;;;;;;5054942;28;20485;-81
2022/03/18 04:05:32;;;;;;;9.02;4.93;;;4.20;99.90;;;;;;5055149;28;20076;-82
2022/03/18 04:07:58;;;;;;;12.48;6.50;;;4.30;99.90;;;;;;5054954;28;20464;-83
2022/03/18 04:10:23;;;;;;;9.48;5.28;;;4.40;99.90;;;;;;5038553;28;20131;-82
2022/03/18 04:12:49;;;;;;;9.60;5.30;;;4.50;99.90;;;;;;5037963;28;20574;-82
2022/03/18 04:15:15;;;;;;;11.18;5.38;;;4.70;99.90;;;;;;5023048;28;20048;-82
2022/03/18 04:17:43;;;;;;;10.80;6.03;;;4.70;99.90;;;;;;5063890;28;20035;-83
2022/03/18 04:20:11;;;;;;;12.48;6.47;;;4.80;99.90;;;;;;5053496;28;20044;-83
2022/03/18 04:22:38;;;;;;;13.05;5.75;;;4.90;99.90;;;;;;5033664;28;20048;-82
2022/03/18 04:25:05;;;;;;;10.18;5.45;;;4.90;99.90;;;;;;5071913;28;20059;-83
2022/03/18 04:27:31;;;;;;;8.20;5.65;;;4.90;99.90;;;;;;5064576;28;20405;-82
2022/03/18 04:29:56;;;;;;;;;;;5.00;99.90;;;;;;5055424;28;20493;-82
2022/03/18 04:32:23;;;;;;;8.75;5.65;;;5.10;99.90;;;;;;5035868;28;19963;-83
2022/03/18 04:34:48;;;;;;;11.30;6.68;;;5.10;99.90;;;;;;5037020;28;20071;-83
2022/03/18 04:37:14;;;;;;;11.10;5.90;;;5.20;99.90;;;;;;5041821;28;20043;-82
2022/03/18 04:39:40;;;;;;;11.27;6.57;;;5.40;99.90;;;;;;5048830;28;20455;-81
2022/03/18 04:42:05;;;;;;;14.95;5.90;;;5.20;99.90;;;;;;5072833;28;20055;-82
2022/03/18 04:44:31;;;;;;;14.05;7.38;;;5.20;99.90;;;;;;5052350;28;20043;-82
2022/03/18 04:46:57;;;;;;;7.47;5.97;;;5.20;99.90;;;;;;5042894;28;20181;-82
2022/03/18 04:49:22;;;;;;;12.70;6.82;;;5.30;99.90;;;;;;5040886;28;21510;-81
2022/03/18 04:51:48;;;;;;;11.52;7.10;;;5.30;99.90;;;;;;5013746;28;20052;-82
2022/03/18 04:54:14;;;;;;;12.90;7.22;;;5.20;99.90;;;;;;5055597;28;20549;-81
2022/03/18 04:57:25;;;;;;;11.25;6.40;;;5.40;99.90;;;;;;5061375;28;20044;-81
2022/03/18 04:59:26;;;;;;;14.20;6.90;;;5.20;99.90;;;;;;5042289;28;20758;-82
2022/03/18 05:01:51;;;;;;;11.90;7.05;;;5.10;99.90;;;;;;5053870;28;20124;-83
2022/03/18 05:04:17;;;;;;;12.55;7.15;;;5.10;99.90;;;;;;5052998;28;20462;-82
2022/03/18 05:06:44;;;;;;;15.75;7.80;;;5.00;99.90;;;;;;5045879;28;20056;-82
2022/03/18 05:09:10;;;;;;;12.27;5.90;;;4.90;99.90;;;;;;5054994;28;20094;-81
2022/03/18 05:11:36;;;;;;;8.60;6.53;;;4.80;99.90;;;;;;5054469;28;20419;-83
2022/03/18 05:14:01;;;;;;;8.50;6.63;;;4.80;99.90;;;;;;5041997;28;20060;-83
2022/03/18 05:16:27;;;;;;;11.23;7.32;;;4.70;99.90;;;;;;5021524;28;20072;-82
2022/03/18 05:18:53;;;;;;;14.38;8.00;;;4.60;99.90;;;;;;5054383;28;20052;-82
2022/03/18 05:21:25;;;;;;;14.82;7.63;;;4.60;99.90;;;;;;5056373;28;20043;-83
2022/03/18 05:23:50;;;;;;;13.13;7.43;;;4.40;99.90;;;;;;5055125;28;20040;-83
2022/03/18 05:26:16;;;;;;;12.73;7.35;;;4.40;99.90;;;;;;5050030;28;20058;-82
2022/03/18 05:28:42;;;;;;;13.43;7.97;;;4.40;99.90;;;;;;5058753;28;20098;-81
2022/03/18 05:31:09;;;;;;;11.65;7.38;;;4.30;99.90;;;;;;5025788;28;20052;-82
2022/03/18 05:33:34;;;;;;;11.20;7.55;;;4.30;99.90;;;;;;5053923;28;20404;-82
2022/03/18 05:36:00;;;;;;;10.93;7.50;;;4.20;99.90;;;;;;5062449;28;20033;-81
2022/03/18 05:38:26;;;;;;;19.38;7.90;;;4.40;99.90;;;;;;5037091;28;20139;-83
2022/03/18 05:40:53;;;;;;;16.23;7.65;;;4.10;99.90;;;;;;5014347;28;20107;-81
2022/03/18 05:43:18;;;;;;;14.13;8.63;;;4.20;99.90;;;;;;5017683;28;20052;-83
2022/03/18 05:45:45;;;;;;;15.55;8.55;;;4.00;99.90;;;;;;5053138;28;20037;-83
2022/03/18 05:48:11;;;;;;;14.35;7.75;;;4.00;99.90;;;;;;5029411;28;20045;-81
2022/03/18 05:50:37;;;;;;;11.02;7.35;;;4.00;99.90;;;;;;5035550;28;20060;-82
2022/03/18 05:53:04;;;;;;;10.82;7.97;;;4.00;99.90;;;;;;5053161;28;20501;-83
2022/03/18 05:58:15;;;;;;;9.82;7.95;;;3.90;99.90;;;;;;5028009;28;20050;-82
2022/03/18 06:00:43;;;;;;;14.48;9.25;;;3.90;99.90;;;;;;5038255;28;20120;-82
2022/03/18 06:03:08;;;;;;;13.90;9.38;;;3.90;99.90;;;;;;5051854;28;20396;-82
2022/03/18 06:05:34;;;;;;;11.32;8.48;;;4.00;99.90;;;;;;5058355;28;20037;-81
2022/03/18 06:11:48;;;;;;;14.98;8.70;;;4.10;99.90;;;;;;5054654;28;20084;-82
2022/03/18 06:13:29;;;;;;;15.55;9.82;;;4.10;99.90;;;;;;5034226;28;20390;-82
2022/03/18 06:15:55;;;;;;;11.85;8.65;;;4.10;99.90;;;;;;5021572;28;20043;-82
2022/03/18 06:18:20;;;;;;;14.45;8.57;;;4.00;99.90;;;;;;5045677;28;20040;-82
2022/03/18 06:20:50;;;;;;;19.85;8.75;;;4.10;99.90;;;;;;5055213;28;20037;-82
2022/03/18 06:23:16;;;;;;;19.42;9.93;;;4.00;99.90;;;;;;5046240;28;20367;-81
2022/03/18 06:25:43;;;;;;;11.13;8.65;;;4.00;99.90;;;;;;5029692;28;20151;-80
2022/03/18 06:28:09;;;;;;;15.10;9.00;;;4.00;99.90;;;;;;5055183;28;20049;-83
2022/03/18 06:30:35;;;;;;;15.63;8.68;;;4.10;99.90;;;;;;5056725;28;20441;-82
2022/03/18 06:33:01;;;;;;;12.43;7.75;;;4.10;99.90;;;;;;5046861;28;20072;-81
2022/03/18 06:35:26;;;;;;;15.05;9.43;;;4.00;99.90;;;;;;5053729;28;20044;-82
2022/03/18 06:37:54;;;;;;;13.88;9.52;;;4.00;99.90;;;;;;5037647;28;20048;-81
2022/03/18 06:40:20;;;;;;;13.43;9.02;;;4.10;99.90;;;;;;5057110;28;20517;-82
2022/03/18 06:42:46;;;;;;;21.63;10.18;;;4.20;99.90;;;;;;5060728;28;20512;-82
2022/03/18 06:45:11;;;;;;;13.30;9.85;;;4.30;99.90;;;;;;5041786;28;20040;-82
2022/03/18 06:47:38;;;;;;;18.50;9.65;;;4.40;99.90;;;;;;5047960;28;20403;-82
2022/03/18 06:50:04;;;;;;;15.30;10.63;;;4.50;99.90;;;;;;5047291;28;20072;-80
2022/03/18 06:52:30;;;;;;;16.55;11.25;;;4.70;99.90;;;;;;5070535;28;20029;-83
2022/03/18 06:54:56;;;;;;;14.70;10.60;;;4.80;99.90;;;;;;5037176;28;20083;-82
2022/03/18 06:57:22;;;;;;;19.83;11.70;;;5.00;99.90;;;;;;4993210;28;20091;-83
2022/03/18 06:59:47;;;;;;;19.38;10.73;;;5.10;99.90;;;;;;5048804;28;20052;-83
2022/03/18 07:02:17;;;;;;;16.40;9.18;;;5.30;99.90;;;;;;5022619;28;20371;-82
2022/03/18 07:04:44;;;;;;;18.58;10.73;;;5.40;99.90;;;;;;5022553;28;20049;-81
2022/03/18 07:07:10;;;;;;;18.98;10.23;;;5.50;99.90;;;;;;5039997;28;20049;-81
2022/03/18 07:09:36;;;;;;;15.52;10.00;;;5.60;99.90;;;;;;5033612;28;20044;-82
2022/03/18 07:12:02;;;;;;;22.00;10.48;;;5.70;99.90;;;;;;5035794;28;20486;-82
2022/03/18 07:14:28;;;;;;;;;;;5.70;99.90;;;;;;5053109;28;20041;-83
2022/03/18 07:19:39;;;;;;;22.20;10.80;;;5.90;99.90;;;;;;5056301;28;20103;-80
2022/03/18 07:22:05;;;;;;;12.77;8.95;;;6.10;99.90;;;;;;5020384;28;20041;-82
2022/03/18 07:24:31;;;;;;;18.02;11.20;;;6.20;99.90;;;;;;5034320;28;20049;-82
2022/03/18 07:26:57;;;;;;;18.45;10.38;;;6.40;99.90;;;;;;5036253;28;20422;-81
2022/03/18 07:29:23;;;;;;;14.40;8.73;;;6.50;99.90;;;;;;5036002;28;20056;-82
2022/03/18 07:31:51;;;;;;;19.08;9.55;;;6.60;99.90;;;;;;5055539;28;20056;-81
2022/03/18 07:34:16;;;;;;;19.88;9.30;;;6.70;99.90;;;;;;5018494;28;20048;-82
2022/03/18 07:36:42;;;;;;;15.38;7.82;;;6.80;99.90;;;;;;5055643;28;20045;-81
2022/03/18 07:39:08;;;;;;;15.88;9.15;;;6.90;99.90;;;;;;5037123;28;20056;-81
2022/03/18 07:41:35;;;;;;;17.02;8.80;;;7.00;99.90;;;;;;5055116;28;20385;-81
2022/03/18 07:44:01;;;;;;;17.17;10.55;;;7.10;99.90;;;;;;5000463;28;20136;-82
2022/03/18 07:46:27;;;;;;;15.68;10.15;;;7.20;99.90;;;;;;5035521;28;20036;-82
2022/03/18 07:48:53;;;;;;;18.33;7.90;;;7.30;99.90;;;;;;5052276;28;20037;-82
2022/03/18 07:51:18;;;;;;;19.60;8.75;;;7.30;99.90;;;;;;5036315;28;20032;-80
2022/03/18 07:53:44;;;;;;;18.95;10.48;;;7.30;99.90;;;;;;5060268;28;20052;-81
2022/03/18 07:56:10;;;;;;;18.13;10.00;;;7.40;99.90;;;;;;5061757;28;20041;-81
2022/03/18 07:58:36;;;;;;;13.10;9.30;;;7.40;99.90;;;;;;5063567;28;20052;-82
2022/03/18 08:01:07;;;;;;;18.15;9.75;;;7.40;99.90;;;;;;5037006;28;20041;-80
2022/03/18 08:03:33;;;;;;;18.13;9.45;;;7.50;99.90;;;;;;5051878;28;20044;-81
2022/03/18 08:05:59;;;;;;;17.02;8.48;;;7.50;99.90;;;;;;5052343;28;20037;-82
2022/03/18 08:08:25;;;;;;;14.75;9.55;;;7.60;99.90;;;;;;5035676;28;20079;-83
2022/03/18 08:10:51;;;;;;;16.17;8.55;;;7.60;99.90;;;;;;5035331;28;20040;-81
2022/03/18 08:13:17;;;;;;;16.05;8.95;;;7.60;99.90;;;;;;5035108;28;20028;-84
2022/03/18 08:15:44;;;;;;;21.02;9.15;;;7.70;99.90;;;;;;5040771;28;20036;-82
2022/03/18 08:18:11;;;;;;;14.90;9.05;;;7.80;99.90;;;;;;5034272;28;20514;-83
2022/03/18 08:20:43;;;;;;;16.88;10.30;;;7.90;99.90;;;;;;5043257;28;20045;-83
2022/03/18 08:23:14;;;;;;;18.40;9.68;;;7.90;99.90;;;;;;5037870;28;20051;-82
2022/03/18 08:25:41;;;;;;;17.38;9.05;;;8.00;99.90;;;;;;5031305;28;20055;-82
2022/03/18 08:28:08;;;;;;;16.33;8.93;;;8.10;99.90;;;;;;5038597;28;20045;-83
2022/03/18 08:30:34;;;;;;;16.13;8.95;;;8.20;99.90;;;;;;5052788;28;20390;-82
2022/03/18 08:33:00;;;;;;;11.45;8.27;;;8.30;99.90;;;;;;5050305;28;20047;-81
2022/03/18 08:35:26;;;;;;;16.50;9.45;;;8.50;99.90;;;;;;5021803;28;20401;-81
2022/03/18 08:37:59;;;;;;;16.95;8.88;;;8.50;99.90;;;;;;5017875;28;20045;-82
2022/03/18 08:40:28;;;;;;;14.60;8.77;;;8.60;99.90;;;;;;5051148;28;20143;-82
2022/03/18 08:42:58;;;;;;;18.00;8.80;;;8.70;99.90;;;;;;5051763;28;20463;-82
2022/03/18 08:45:25;;;;;;;20.10;7.93;;;8.70;99.90;;;;;;5063338;28;20037;-81
2022/03/18 08:47:51;;;;;;;16.30;8.90;;;8.80;99.90;;;;;;5038331;28;20041;-81
2022/03/18 08:50:17;;;;;;;16.02;8.70;;;8.90;99.90;;;;;;5025370;28;20037;-81
2022/03/18 08:52:43;;;;;;;13.68;8.45;;;9.00;99.90;;;;;;5044896;28;20391;-81
2022/03/18 08:55:09;;;;;;;14.20;7.82;;;9.10;99.90;;;;;;5039182;28;20047;-82
2022/03/18 08:57:37;;;;;;;;;;;9.20;99.90;;;;;;5034637;28;20041;-82
2022/03/18 09:00:06;;;;;;;15.15;8.32;;;9.20;99.90;;;;;;5048758;28;19990;-82
2022/03/18 09:02:34;;;;;;;15.82;8.30;;;9.20;99.90;;;;;;5023722;28;20037;-82
2022/03/18 09:04:59;;;;;;;19.40;8.10;;;9.30;99.90;;;;;;5034901;28;20045;-83
2022/03/18 09:07:26;;;;;;;13.07;7.97;;;9.40;99.90;;;;;;5050559;28;20053;-82
2022/03/18 09:09:51;;;;;;;;;;;9.40;99.90;;;;;;5049066;28;20036;-81
2022/03/18 09:12:18;;;;;;;19.13;8.25;;;9.60;99.90;;;;;;5050600;28;19939;-83
2022/03/18 09:14:44;;;;;;;11.40;6.47;;;9.60;99.90;;;;;;5047372;28;20394;-83
2022/03/18 09:17:10;;;;;;;;;;;9.70;99.90;;;;;;5050326;28;20045;-82
2022/03/18 09:19:37;;;;;;;13.18;7.13;;;9.80;99.90;;;;;;5041799;28;19932;-83
2022/03/18 09:22:06;;;;;;;16.08;8.27;;;9.80;99.90;;;;;;5035965;28;20052;-82
2022/03/18 09:24:33;;;;;;;15.73;7.53;;;9.90;99.90;;;;;;5051383;28;20398;-80
2022/03/18 09:26:59;;;;;;;12.30;7.07;;;10.00;99.90;;;;;;5050723;28;20474;-83
2022/03/18 09:29:25;;;;;;;10.00;7.65;;;10.10;99.90;;;;;;5067588;28;20175;-80
2022/03/18 09:31:51;;;;;;;;;;;10.20;99.90;;;;;;5042248;28;21410;-82
2022/03/18 09:34:17;;;;;;;17.67;6.47;;;10.30;99.90;;;;;;5051032;28;19917;-82
2022/03/18 09:36:42;;;;;;;15.13;6.43;;;10.40;99.90;;;;;;5034651;28;20052;-82
2022/03/18 09:39:08;;;;;;;15.23;6.28;;;10.40;99.90;;;;;;5037892;28;20429;-81
2022/03/18 09:41:34;;;;;;;18.17;6.07;;;10.50;99.90;;;;;;5015453;28;20482;-81
2022/03/18 09:44:00;;;;;;;12.77;6.68;;;10.50;99.90;;;;;;5058244;28;20123;-82
2022/03/18 09:46:26;;;;;;;17.45;6.15;;;10.60;99.90;;;;;;5036977;28;20128;-81
2022/03/18 09:48:52;;;;;;;17.38;7.15;;;10.70;99.90;;;;;;5056585;28;20037;-82
2022/03/18 09:51:18;;;;;;;14.98;7.47;;;10.80;99.90;;;;;;5053554;28;20089;-80
2022/03/18 09:53:44;;;;;;;;;;;10.90;99.90;;;;;;5037302;28;20064;-81
2022/03/18 09:56:11;;;;;;;11.05;5.95;;;10.90;99.90;;;;;;5039355;28;19969;-80
2022/03/18 09:58:38;;;;;;;12.10;6.63;;;11.00;99.90;;;;;;5043442;28;20130;-83
2022/03/18 10:01:07;;;;;;;11.05;5.72;;;11.10;99.90;;;;;;5039976;28;20037;-83
2022/03/18 10:03:39;;;;;;;11.20;6.07;;;11.20;99.90;;;;;;5003154;28;20398;-80
2022/03/18 10:06:05;;;;;;;11.20;6.25;;;11.20;99.90;;;;;;5029410;28;20039;-79
2022/03/18 10:08:40;;;;;;;12.23;5.28;;;11.30;99.90;;;;;;5044071;28;20097;-81
2022/03/18 10:11:20;;;;;;;12.32;5.97;;;11.30;99.90;;;;;;5052030;28;20040;-85
2022/03/18 10:13:57;;;;;;;12.38;5.70;;;11.30;99.90;;;;;;5038650;28;20048;-84
2022/03/18 10:16:41;;;;;;;11.70;6.50;;;11.30;99.90;;;;;;5042244;28;20083;-83
2022/03/18 10:19:11;;;;;;;8.63;5.82;;;11.40;99.90;;;;;;5026714;28;20052;-83
2022/03/18 10:22:00;;;;;;;13.35;5.65;;;11.50;99.90;;;;;;5048844;28;20044;-83
2022/03/18 10:24:30;;;;;;;13.25;6.50;;;11.60;99.90;;;;;;5051433;28;20429;-83
2022/03/18 10:27:23;;;;;;;10.77;5.50;;;11.80;99.90;;;;;;5026132;28;20867;-82
2022/03/18 10:29:55;;;;;;;15.93;6.20;;;11.90;99.90;;;;;;5039938;28;20051;-85
2022/03/18 10:32:33;;;;;;;11.98;5.72;;;11.90;99.90;;;;;;5057172;28;20097;-87
2022/03/18 10:37:52;;;;;;;12.13;5.55;;;12.10;99.90;;;;;;5038915;28;20044;-86
2022/03/18 10:40:39;;;;;;;12.48;5.45;;;12.10;99.90;;;;;;5039594;28;20057;-81
2022/03/18 10:43:06;;;;;;;15.55;6.18;;;12.20;99.90;;;;;;5043889;28;20102;-81
2022/03/18 10:45:33;;;;;;;12.65;6.32;;;12.20;99.90;;;;;;5033020;28;20036;-86
2022/03/18 10:48:12;;;;;;;10.98;4.78;;;12.20;99.90;;;;;;5039877;28;20041;-85
2022/03/18 10:50:40;;;;;;;14.90;5.90;;;12.40;99.90;;;;;;5045882;28;20040;-83
2022/03/18 10:53:08;;;;;;;18.40;6.18;;;12.50;99.90;;;;;;5060626;28;20124;-81
2022/03/18 10:55:40;;;;;;;17.33;6.40;;;12.50;99.90;;;;;;5038127;28;20043;-84
2022/03/18 10:58:19;;;;;;;13.68;6.30;;;12.50;99.90;;;;;;5046915;28;20132;-84
2022/03/18 11:00:50;;;;;;;11.63;6.20;;;12.50;99.90;;;;;;5035013;28;20048;-82
2022/03/18 11:03:28;;;;;;;11.27;5.97;;;12.60;99.90;;;;;;5027804;28;20425;-84
2022/03/18 11:05:54;;;;;;;;;;;12.50;99.90;;;;;;5036282;28;20040;-81
2022/03/18 11:08:25;;;;;;;12.02;5.60;;;12.50;99.90;;;;;;5033212;28;20362;-80
2022/03/18 11:11:10;;;;;;;12.48;5.32;;;12.60;99.90;;;;;;5037673;28;20045;-79
2022/03/18 11:14:06;;;;;;;9.43;5.68;;;12.80;99.90;;;;;;5028962;28;20044;-84
2022/03/18 11:16:38;;;;;;;13.27;5.68;;;13.00;99.90;;;;;;5034200;28;20084;-83
2022/03/18 11:19:09;;;;;;;11.90;5.03;;;13.00;99.90;;;;;;5032245;28;20068;-82
2022/03/18 11:21:38;;;;;;;10.88;4.88;;;13.00;99.90;;;;;;5044784;28;20094;-81
2022/03/18 11:24:07;;;;;;;13.93;5.18;;;13.10;99.90;;;;;;5053805;28;20052;-78
2022/03/18 11:26:35;;;;;;;10.80;4.90;;;13.20;99.90;;;;;;5045342;28;20037;-80
2022/03/18 11:29:06;;;;;;;12.20;4.90;;;13.30;99.90;;;;;;5059477;28;20040;-81
2022/03/18 11:31:33;;;;;;;7.05;3.58;;;13.40;99.90;;;;;;5055372;28;20064;-82
2022/03/18 11:34:20;;;;;;;10.38;4.43;;;13.50;99.90;;;;;;5018947;28;20482;-81
2022/03/18 11:37:04;;;;;;;15.00;5.00;;;13.50;99.90;;;;;;5052072;28;20028;-80
2022/03/18 11:39:30;;;;;;;8.45;4.80;;;13.50;99.90;;;;;;5029844;28;20069;-80
2022/03/18 11:42:03;;;;;;;9.15;4.07;;;13.50;99.90;;;;;;5025221;28;20041;-80
2022/03/18 11:45:01;;;;;;;12.05;4.90;;;13.50;99.90;;;;;;5029997;28;20367;-81
2022/03/18 11:47:29;;;;;;;9.50;5.45;;;13.40;99.90;;;;;;5031809;28;20045;-81
2022/03/18 11:49:57;;;;;;;10.60;4.68;;;13.40;99.90;;;;;;5053278;28;20206;-81
2022/03/18 11:52:22;;;;;;;10.10;4.93;;;13.40;99.90;;;;;;5060803;28;20041;-79
2022/03/18 11:54:58;;;;;;;11.93;5.47;;;13.50;99.90;;;;;;5057589;28;20092;-81
2022/03/18 11:57:33;;;;;;;12.57;5.50;;;13.60;99.90;;;;;;5044654;28;20076;-80
2022/03/18 12:00:05;;;;;;;18.65;5.40;;;13.70;99.90;;;;;;5052779;28;20041;-81
2022/03/18 12:02:38;;;;;;;13.85;4.95;;;13.70;99.90;;;;;;5031262;28;20171;-81
2022/03/18 12:05:05;;;;;;;11.23;5.65;;;13.70;99.90;;;;;;5031809;28;20045;-81
2022/03/18 12:07:46;;;;;;;10.10;5.40;;;13.50;99.90;;;;;;5052233;28;20045;-81
2022/03/18 12:10:14;;;;;;;14.38;5.32;;;13.30;99.90;;;;;;5033739;28;20120;-82
2022/03/18 12:12:48;;;;;;;9.43;5.15;;;13.40;99.90;;;;;;5031553;28;20034;-81
2022/03/18 12:15:22;;;;;;;14.32;4.93;;;13.40;99.90;;;;;;5049213;28;20048;-80
2022/03/18 12:17:54;;;;;;;9.40;4.88;;;13.40;99.90;;;;;;5049364;28;20123;-79
2022/03/18 12:20:23;;;;;;;17.95;4.70;;;13.30;99.90;;;;;;5050563;28;20070;-83
2022/03/18 12:22:51;;;;;;;14.23;4.72;;;13.50;99.90;;;;;;5044667;28;20448;-82
2022/03/18 12:25:18;;;;;;;10.07;4.63;;;13.60;99.90;;;;;;5042448;28;20041;-82
2022/03/18 12:27:46;;;;;;;8.73;4.57;;;13.50;99.90;;;;;;5051675;28;20123;-81
2022/03/18 12:30:13;;;;;;;13.23;4.15;;;13.60;99.90;;;;;;5050767;28;20037;-82
2022/03/18 12:32:52;;;;;;;10.65;4.30;;;13.70;99.90;;;;;;5049817;28;20044;-81
2022/03/18 12:35:19;;;;;;;11.98;4.45;;;13.70;99.90;;;;;;5048479;28;20195;-81
2022/03/18 12:37:46;;;;;;;6.63;4.13;;;13.90;99.90;;;;;;5050997;28;20068;-80
2022/03/18 12:40:19;;;;;;;6.85;3.90;;;13.90;99.90;;;;;;5049124;28;20057;-81
2022/03/18 12:42:54;;;;;;;8.13;4.28;;;14.00;99.90;;;;;;5050128;28;20064;-83
2022/03/18 12:45:29;;;;;;;10.80;4.22;;;14.10;99.90;;;;;;5051621;28;20052;-81
2022/03/18 12:48:00;;;;;;;16.10;4.25;;;14.20;99.90;;;;;;5049411;28;20048;-81
2022/03/18 12:50:28;;;;;;;10.07;4.20;;;14.10;99.90;;;;;;5035470;28;20041;-83
2022/03/18 12:52:56;;;;;;;15.65;4.25;;;14.10;99.90;;;;;;5050606;28;20374;-80
2022/03/18 12:55:24;;;;;;;9.70;4.28;;;14.10;99.90;;;;;;5048665;28;20116;-80
2022/03/18 12:57:50;;;;;;;10.45;4.18;;;14.10;99.90;;;;;;5032842;28;20041;-81
2022/03/18 13:00:17;;;;;;;8.85;4.45;;;14.00;99.90;;;;;;5047788;28;20044;-80
2022/03/18 13:02:44;;;;;;;11.70;4.03;;;14.00;99.90;;;;;;5052018;28;20041;-82
2022/03/18 13:05:15;;;;;;;10.43;4.43;;;14.10;99.90;;;;;;5035486;28;20548;-80
2022/03/18 13:07:41;;;;;;;12.43;4.32;;;14.00;99.90;;;;;;5053162;28;20040;-80
2022/03/18 13:10:07;;;;;;;5.55;3.55;;;13.90;99.90;;;;;;5027558;28;20131;-80